Hovedside
METAR-TAF:

METAR-TAF

Lufthavner :

Luganville, Espiritu Santo, Vanuatu

breddegrad: 15-31S, lengdegrad: 167-13E, høyde over havet: 41 m

Gjeldene værobservasjon

Denne rapporten ble laget for 46 minutter siden, klokken 01:00 UTC
Vind 8 kt fra Sør-sørøst
Temperatur 28°C
Luftfuktighet 79%
Trykk 1011 hPa
Sikt 10 km eller mer
Spredte skyer i en høyde av 1800 ft
Brutte skyer i en høyde av 4000 ft

METAR: NVSS 200100Z 15008KT 9999 SCT018 BKN040 28/24 Q1011

Tid: 12:46 (01:46 UTC)

Varsel

Denne rapporten ble laget for 2 timer og 46 minutter siden, klokken 23:00 UTC
Varsel gyldig fra 20. klokken 00 UTC til 20. klokken 24 UTC
Vind 8 kt fra Sørøst
Sikt: 8000 m
Spredte skyer i en høyde av 1800 ft
Brutte skyer i en høyde av 3800 ft
Spredte skyer i en høyde av 1000 ft
Brutte skyer i en høyde av 1600 ft
Overskyet i en høyde av 3800 ft
kraftige regnbyger,

TAF: NVSS 192300Z 2000/2024 13008KT 9999 SCT018 BKN038 INTER 2000/2006 8000 +SHRA SCT010 BKN016 OVC038

Værobservasjoner og værvarsel for over 4000 flyplasser (METAR- og TAF-rapporter).

Tilgjengelige stasjoner er representert av de røde og gule prikkene på kartet.

Hold musepekeren over prikken for å se navnet på stasjonen.

Klikk så for å se værobservasjoner og -varsler.

For å forandre kartet kan du klikke på den grønne knappen med svart kryss for å zoome inn, på den grønne knappen med strek for å zoome ut, eller på de grønne pilene for å se tilstøtende kart.


METAR-TAF: